sensor_id;sensor_type;location;lat;lon;timestamp;pressure;altitude;pressure_sealevel;temperature;humidity
45357;BME280;31092;51.924;21.448;2022-08-19T00:01:29;99957.56;;;18.32;100.00
45357;BME280;31092;51.924;21.448;2022-08-19T00:04:03;99934.41;;;18.16;100.00
45357;BME280;31092;51.924;21.448;2022-08-19T00:06:29;99939.47;;;18.13;100.00
45357;BME280;31092;51.924;21.448;2022-08-19T00:08:57;99945.75;;;18.13;100.00
45357;BME280;31092;51.924;21.448;2022-08-19T00:11:23;99952.50;;;18.11;100.00
45357;BME280;31092;51.924;21.448;2022-08-19T00:13:49;99924.53;;;17.97;100.00
45357;BME280;31092;51.924;21.448;2022-08-19T00:16:16;99932.69;;;17.97;100.00
45357;BME280;31092;51.924;21.448;2022-08-19T00:21:21;99947.91;;;18.11;100.00
45357;BME280;31092;51.924;21.448;2022-08-19T00:23:47;99985.22;;;18.36;100.00
45357;BME280;31092;51.924;21.448;2022-08-19T00:26:13;99930.31;;;18.07;100.00
45357;BME280;31092;51.924;21.448;2022-08-19T00:28:42;99947.06;;;18.11;100.00
45357;BME280;31092;51.924;21.448;2022-08-19T00:31:08;99984.16;;;18.37;100.00
45357;BME280;31092;51.924;21.448;2022-08-19T00:33:35;99943.88;;;18.14;100.00
45357;BME280;31092;51.924;21.448;2022-08-19T00:36:01;99983.72;;;18.40;100.00
45357;BME280;31092;51.924;21.448;2022-08-19T00:38:30;99987.72;;;18.37;100.00
45357;BME280;31092;51.924;21.448;2022-08-19T00:40:55;99952.03;;;18.14;100.00
45357;BME280;31092;51.924;21.448;2022-08-19T00:43:32;99944.16;;;18.06;100.00
45357;BME280;31092;51.924;21.448;2022-08-19T00:45:58;99960.69;;;18.11;100.00
45357;BME280;31092;51.924;21.448;2022-08-19T00:48:24;99998.91;;;18.29;100.00
45357;BME280;31092;51.924;21.448;2022-08-19T00:50:50;99998.28;;;18.27;100.00
45357;BME280;31092;51.924;21.448;2022-08-19T00:53:21;99996.19;;;18.29;100.00
45357;BME280;31092;51.924;21.448;2022-08-19T00:55:50;99994.28;;;18.30;100.00
45357;BME280;31092;51.924;21.448;2022-08-19T00:58:19;99990.97;;;18.21;100.00
45357;BME280;31092;51.924;21.448;2022-08-19T01:00:46;99944.25;;;17.92;100.00
45357;BME280;31092;51.924;21.448;2022-08-19T01:03:16;99947.03;;;17.86;100.00
45357;BME280;31092;51.924;21.448;2022-08-19T01:05:44;99989.81;;;18.10;100.00
45357;BME280;31092;51.924;21.448;2022-08-19T01:08:15;99952.09;;;17.82;100.00
45357;BME280;31092;51.924;21.448;2022-08-19T01:11:07;100004.31;;;18.11;100.00
45357;BME280;31092;51.924;21.448;2022-08-19T01:13:34;100011.00;;;18.08;100.00
45357;BME280;31092;51.924;21.448;2022-08-19T01:16:08;100000.78;;;18.04;100.00
45357;BME280;31092;51.924;21.448;2022-08-19T01:18:40;99926.00;;;17.61;100.00
45357;BME280;31092;51.924;21.448;2022-08-19T01:21:15;99930.59;;;17.61;100.00
45357;BME280;31092;51.924;21.448;2022-08-19T01:23:44;99992.47;;;17.92;100.00
45357;BME280;31092;51.924;21.448;2022-08-19T01:26:16;99930.88;;;17.53;100.00
45357;BME280;31092;51.924;21.448;2022-08-19T01:28:44;99999.41;;;17.88;100.00
45357;BME280;31092;51.924;21.448;2022-08-19T01:31:14;99964.72;;;17.70;100.00
45357;BME280;31092;51.924;21.448;2022-08-19T01:33:40;99997.50;;;17.88;100.00
45357;BME280;31092;51.924;21.448;2022-08-19T01:36:08;99954.06;;;17.62;100.00
45357;BME280;31092;51.924;21.448;2022-08-19T01:38:37;99947.44;;;17.51;100.00
45357;BME280;31092;51.924;21.448;2022-08-19T01:41:03;99985.00;;;17.74;100.00
45357;BME280;31092;51.924;21.448;2022-08-19T01:43:29;100003.00;;;17.82;100.00
45357;BME280;31092;51.924;21.448;2022-08-19T01:46:06;99998.22;;;17.77;100.00
45357;BME280;31092;51.924;21.448;2022-08-19T01:48:38;99963.50;;;17.59;100.00
45357;BME280;31092;51.924;21.448;2022-08-19T01:51:06;100004.84;;;17.88;100.00
45357;BME280;31092;51.924;21.448;2022-08-19T01:53:32;99997.94;;;17.85;100.00
45357;BME280;31092;51.924;21.448;2022-08-19T01:55:58;100007.31;;;17.96;100.00
45357;BME280;31092;51.924;21.448;2022-08-19T01:58:29;100002.72;;;17.97;100.00
45357;BME280;31092;51.924;21.448;2022-08-19T02:00:56;100004.38;;;17.98;100.00
45357;BME280;31092;51.924;21.448;2022-08-19T02:03:22;99950.03;;;17.71;100.00
45357;BME280;31092;51.924;21.448;2022-08-19T02:05:54;99951.75;;;17.65;100.00
45357;BME280;31092;51.924;21.448;2022-08-19T02:08:20;99987.59;;;18.01;100.00
45357;BME280;31092;51.924;21.448;2022-08-19T02:10:45;100004.72;;;18.08;100.00
45357;BME280;31092;51.924;21.448;2022-08-19T02:13:12;99981.75;;;17.97;100.00
45357;BME280;31092;51.924;21.448;2022-08-19T02:15:39;99988.00;;;18.04;100.00
45357;BME280;31092;51.924;21.448;2022-08-19T02:18:05;99912.59;;;17.60;100.00
45357;BME280;31092;51.924;21.448;2022-08-19T02:20:31;99981.75;;;17.97;100.00
45357;BME280;31092;51.924;21.448;2022-08-19T02:22:57;99977.53;;;18.01;100.00
45357;BME280;31092;51.924;21.448;2022-08-19T02:25:22;99983.81;;;18.02;100.00
45357;BME280;31092;51.924;21.448;2022-08-19T02:27:54;99914.22;;;17.67;100.00
45357;BME280;31092;51.924;21.448;2022-08-19T02:30:20;99978.97;;;18.04;100.00
45357;BME280;31092;51.924;21.448;2022-08-19T02:32:56;99983.38;;;18.05;100.00
45357;BME280;31092;51.924;21.448;2022-08-19T02:35:21;99906.31;;;17.59;100.00
45357;BME280;31092;51.924;21.448;2022-08-19T02:37:47;99932.84;;;17.70;100.00
45357;BME280;31092;51.924;21.448;2022-08-19T02:40:32;99914.72;;;17.58;100.00
45357;BME280;31092;51.924;21.448;2022-08-19T02:43:06;99984.69;;;17.95;100.00
45357;BME280;31092;51.924;21.448;2022-08-19T02:45:38;99978.63;;;17.93;100.00
45357;BME280;31092;51.924;21.448;2022-08-19T02:48:04;99946.25;;;17.72;100.00
45357;BME280;31092;51.924;21.448;2022-08-19T02:50:31;99950.25;;;17.69;100.00
45357;BME280;31092;51.924;21.448;2022-08-19T02:52:57;99947.53;;;17.69;100.00
45357;BME280;31092;51.924;21.448;2022-08-19T02:55:26;99941.25;;;17.69;100.00
45357;BME280;31092;51.924;21.448;2022-08-19T02:57:54;99987.25;;;17.90;100.00
45357;BME280;31092;51.924;21.448;2022-08-19T03:00:46;99913.03;;;17.57;100.00
45357;BME280;31092;51.924;21.448;2022-08-19T03:03:12;99935.19;;;17.67;100.00
45357;BME280;31092;51.924;21.448;2022-08-19T03:05:39;99979.75;;;17.86;100.00
45357;BME280;31092;51.924;21.448;2022-08-19T03:08:05;99930.41;;;17.62;100.00
45357;BME280;31092;51.924;21.448;2022-08-19T03:10:32;99935.06;;;17.55;100.00
45357;BME280;31092;51.924;21.448;2022-08-19T03:12:57;99977.22;;;17.84;100.00
45357;BME280;31092;51.924;21.448;2022-08-19T03:15:42;99972.44;;;17.80;100.00
45357;BME280;31092;51.924;21.448;2022-08-19T03:18:08;99947.56;;;17.63;100.00
45357;BME280;31092;51.924;21.448;2022-08-19T03:20:48;99986.03;;;17.86;100.00
45357;BME280;31092;51.924;21.448;2022-08-19T03:23:16;99978.44;;;17.88;100.00
45357;BME280;31092;51.924;21.448;2022-08-19T03:25:44;99941.06;;;17.64;100.00
45357;BME280;31092;51.924;21.448;2022-08-19T03:28:20;99977.00;;;17.86;100.00
45357;BME280;31092;51.924;21.448;2022-08-19T03:31:00;99918.09;;;17.53;100.00
45357;BME280;31092;51.924;21.448;2022-08-19T03:33:27;99990.56;;;17.92;100.00
45357;BME280;31092;51.924;21.448;2022-08-19T03:36:09;99990.56;;;17.92;100.00
45357;BME280;31092;51.924;21.448;2022-08-19T03:38:38;99929.16;;;17.58;100.00
45357;BME280;31092;51.924;21.448;2022-08-19T03:41:05;99949.44;;;17.69;100.00
45357;BME280;31092;51.924;21.448;2022-08-19T03:43:42;99992.03;;;17.95;100.00
45357;BME280;31092;51.924;21.448;2022-08-19T03:46:13;99925.78;;;17.63;100.00
45357;BME280;31092;51.924;21.448;2022-08-19T03:48:43;99929.34;;;17.63;100.00
45357;BME280;31092;51.924;21.448;2022-08-19T03:51:17;99924.50;;;17.65;100.00
45357;BME280;31092;51.924;21.448;2022-08-19T03:53:55;99938.28;;;17.70;100.00
45357;BME280;31092;51.924;21.448;2022-08-19T03:56:24;99938.53;;;17.76;100.00
45357;BME280;31092;51.924;21.448;2022-08-19T03:58:51;99928.47;;;17.76;100.00
45357;BME280;31092;51.924;21.448;2022-08-19T04:01:20;99946.19;;;17.85;100.00
45357;BME280;31092;51.924;21.448;2022-08-19T04:03:46;99941.38;;;17.87;100.00
45357;BME280;31092;51.924;21.448;2022-08-19T04:06:21;99947.88;;;17.86;100.00
45357;BME280;31092;51.924;21.448;2022-08-19T04:08:49;99986.66;;;18.13;100.00
45357;BME280;31092;51.924;21.448;2022-08-19T04:11:18;99961.63;;;17.98;100.00
45357;BME280;31092;51.924;21.448;2022-08-19T04:13:49;99967.69;;;18.00;100.00
45357;BME280;31092;51.924;21.448;2022-08-19T04:16:18;99921.47;;;17.87;100.00
45357;BME280;31092;51.924;21.448;2022-08-19T04:18:45;99978.81;;;18.24;100.00
45357;BME280;31092;51.924;21.448;2022-08-19T04:21:17;99964.59;;;18.22;100.00
45357;BME280;31092;51.924;21.448;2022-08-19T04:23:42;99937.44;;;18.08;100.00
45357;BME280;31092;51.924;21.448;2022-08-19T04:26:22;99990.16;;;18.46;100.00
45357;BME280;31092;51.924;21.448;2022-08-19T04:28:47;99989.25;;;18.52;100.00
45357;BME280;31092;51.924;21.448;2022-08-19T04:31:19;99980.84;;;18.53;100.00
45357;BME280;31092;51.924;21.448;2022-08-19T04:33:46;99976.41;;;18.59;100.00
45357;BME280;31092;51.924;21.448;2022-08-19T04:36:26;99992.69;;;18.72;100.00
45357;BME280;31092;51.924;21.448;2022-08-19T04:39:00;99953.50;;;18.60;100.00
45357;BME280;31092;51.924;21.448;2022-08-19T04:41:26;99975.00;;;18.75;100.00
45357;BME280;31092;51.924;21.448;2022-08-19T04:44:11;99984.66;;;18.96;100.00
45357;BME280;31092;51.924;21.448;2022-08-19T04:46:38;99953.03;;;18.88;100.00
45357;BME280;31092;51.924;21.448;2022-08-19T04:49:05;99949.09;;;19.02;100.00
45357;BME280;31092;51.924;21.448;2022-08-19T04:51:32;99938.72;;;19.11;100.00
45357;BME280;31092;51.924;21.448;2022-08-19T04:53:59;99932.47;;;19.22;100.00
45357;BME280;31092;51.924;21.448;2022-08-19T04:56:26;99971.78;;;19.70;100.00
45357;BME280;31092;51.924;21.448;2022-08-19T04:58:53;99940.97;;;19.63;100.00
45357;BME280;31092;51.924;21.448;2022-08-19T05:01:22;99958.28;;;19.87;100.00
45357;BME280;31092;51.924;21.448;2022-08-19T05:04:07;99997.47;;;20.34;100.00
45357;BME280;31092;51.924;21.448;2022-08-19T05:06:33;100002.38;;;20.44;100.00
45357;BME280;31092;51.924;21.448;2022-08-19T05:09:02;100000.84;;;20.60;100.00
45357;BME280;31092;51.924;21.448;2022-08-19T05:11:31;99948.28;;;20.46;100.00
45357;BME280;31092;51.924;21.448;2022-08-19T05:13:57;99961.84;;;20.64;100.00
45357;BME280;31092;51.924;21.448;2022-08-19T05:16:24;99965.75;;;20.80;100.00
45357;BME280;31092;51.924;21.448;2022-08-19T05:18:51;99971.22;;;21.03;100.00
45357;BME280;31092;51.924;21.448;2022-08-19T05:21:35;99958.59;;;21.02;100.00
45357;BME280;31092;51.924;21.448;2022-08-19T05:24:22;99981.88;;;21.28;100.00
45357;BME280;31092;51.924;21.448;2022-08-19T05:26:49;99937.41;;;21.10;100.00
45357;BME280;31092;51.924;21.448;2022-08-19T05:29:18;99989.94;;;21.47;100.00
45357;BME280;31092;51.924;21.448;2022-08-19T05:31:45;99943.88;;;21.32;100.00
45357;BME280;31092;51.924;21.448;2022-08-19T05:34:11;99954.81;;;21.44;100.00
45357;BME280;31092;51.924;21.448;2022-08-19T05:36:41;99961.22;;;21.49;100.00
45357;BME280;31092;51.924;21.448;2022-08-19T05:39:08;99914.13;;;21.24;100.00
45357;BME280;31092;51.924;21.448;2022-08-19T05:41:34;99942.63;;;21.51;100.00
45357;BME280;31092;51.924;21.448;2022-08-19T05:44:04;99953.88;;;21.67;100.00
45357;BME280;31092;51.924;21.448;2022-08-19T05:46:35;99955.72;;;21.78;100.00
45357;BME280;31092;51.924;21.448;2022-08-19T05:49:06;99946.41;;;21.79;100.00
45357;BME280;31092;51.924;21.448;2022-08-19T05:51:34;99981.72;;;22.21;100.00
45357;BME280;31092;51.924;21.448;2022-08-19T05:54:04;99951.91;;;22.25;100.00
45357;BME280;31092;51.924;21.448;2022-08-19T05:56:31;99992.19;;;22.75;100.00
45357;BME280;31092;51.924;21.448;2022-08-19T05:58:58;99953.59;;;22.64;100.00
45357;BME280;31092;51.924;21.448;2022-08-19T06:01:25;99946.94;;;22.77;100.00
45357;BME280;31092;51.924;21.448;2022-08-19T06:03:57;99999.63;;;23.13;100.00
45357;BME280;31092;51.924;21.448;2022-08-19T06:06:22;99987.50;;;23.09;100.00
45357;BME280;31092;51.924;21.448;2022-08-19T06:08:48;99985.06;;;23.12;100.00
45357;BME280;31092;51.924;21.448;2022-08-19T06:14:03;99990.47;;;23.51;100.00
45357;BME280;31092;51.924;21.448;2022-08-19T06:16:29;99917.41;;;23.33;100.00
45357;BME280;31092;51.924;21.448;2022-08-19T06:18:59;99973.72;;;23.75;100.00
45357;BME280;31092;51.924;21.448;2022-08-19T06:21:27;99929.22;;;23.56;100.00
45357;BME280;31092;51.924;21.448;2022-08-19T06:23:57;99934.31;;;23.69;100.00
45357;BME280;31092;51.924;21.448;2022-08-19T06:26:23;99929.59;;;23.64;100.00
45357;BME280;31092;51.924;21.448;2022-08-19T06:28:50;99943.31;;;23.64;100.00
45357;BME280;31092;51.924;21.448;2022-08-19T06:31:22;99991.28;;;24.01;100.00
45357;BME280;31092;51.924;21.448;2022-08-19T06:33:49;99984.84;;;24.17;100.00
45357;BME280;31092;51.924;21.448;2022-08-19T06:38:48;99967.25;;;24.50;100.00
45357;BME280;31092;51.924;21.448;2022-08-19T06:41:14;99975.66;;;24.76;100.00
45357;BME280;31092;51.924;21.448;2022-08-19T06:43:39;99932.13;;;24.68;100.00
45357;BME280;31092;51.924;21.448;2022-08-19T06:46:17;99927.25;;;24.85;100.00
45357;BME280;31092;51.924;21.448;2022-08-19T06:48:43;99957.22;;;25.29;100.00
45357;BME280;31092;51.924;21.448;2022-08-19T06:51:09;99910.63;;;25.12;100.00
45357;BME280;31092;51.924;21.448;2022-08-19T06:53:35;99951.50;;;25.46;100.00
45357;BME280;31092;51.924;21.448;2022-08-19T06:56:01;99979.41;;;25.60;100.00
45357;BME280;31092;51.924;21.448;2022-08-19T06:58:30;99925.00;;;25.29;100.00
45357;BME280;31092;51.924;21.448;2022-08-19T07:01:02;99956.47;;;25.49;100.00
45357;BME280;31092;51.924;21.448;2022-08-19T07:03:32;99938.53;;;25.46;100.00
45357;BME280;31092;51.924;21.448;2022-08-19T07:06:25;99974.53;;;25.87;100.00
45357;BME280;31092;51.924;21.448;2022-08-19T07:08:50;99930.59;;;25.75;100.00
45357;BME280;31092;51.924;21.448;2022-08-19T07:11:17;99915.72;;;25.76;100.00
45357;BME280;31092;51.924;21.448;2022-08-19T07:13:44;99920.19;;;25.98;100.00
45357;BME280;31092;51.924;21.448;2022-08-19T07:16:14;99912.44;;;26.00;100.00
45357;BME280;31092;51.924;21.448;2022-08-19T07:18:40;99965.41;;;26.43;100.00
45357;BME280;31092;51.924;21.448;2022-08-19T07:21:14;99959.66;;;26.55;100.00
45357;BME280;31092;51.924;21.448;2022-08-19T07:23:41;99982.28;;;26.67;100.00
45357;BME280;31092;51.924;21.448;2022-08-19T07:26:09;99973.72;;;26.68;100.00
45357;BME280;31092;51.924;21.448;2022-08-19T07:28:35;99983.09;;;26.83;100.00
45357;BME280;31092;51.924;21.448;2022-08-19T07:31:12;99958.50;;;26.76;100.00
45357;BME280;31092;51.924;21.448;2022-08-19T07:33:39;99959.88;;;26.84;100.00
45357;BME280;31092;51.924;21.448;2022-08-19T07:36:07;99977.19;;;27.10;100.00
45357;BME280;31092;51.924;21.448;2022-08-19T07:38:35;99976.06;;;27.26;100.00
45357;BME280;31092;51.924;21.448;2022-08-19T07:41:01;99963.03;;;27.37;100.00
45357;BME280;31092;51.924;21.448;2022-08-19T07:43:27;99963.75;;;27.53;100.00
45357;BME280;31092;51.924;21.448;2022-08-19T07:45:54;99915.19;;;27.36;100.00
45357;BME280;31092;51.924;21.448;2022-08-19T07:48:30;99964.50;;;27.68;100.00
45357;BME280;31092;51.924;21.448;2022-08-19T07:50:59;99975.47;;;27.89;100.00
45357;BME280;31092;51.924;21.448;2022-08-19T07:53:28;99942.34;;;27.79;100.00
45357;BME280;31092;51.924;21.448;2022-08-19T07:55:55;99869.22;;;27.45;100.00
45357;BME280;31092;51.924;21.448;2022-08-19T07:58:25;99969.75;;;28.14;100.00
45357;BME280;31092;51.924;21.448;2022-08-19T08:00:51;99909.97;;;27.79;100.00
45357;BME280;31092;51.924;21.448;2022-08-19T08:03:19;99959.25;;;28.11;100.00
45357;BME280;31092;51.924;21.448;2022-08-19T08:05:46;99912.09;;;27.87;100.00
45357;BME280;31092;51.924;21.448;2022-08-19T08:08:30;99908.44;;;27.97;100.00
45357;BME280;31092;51.924;21.448;2022-08-19T08:11:02;99948.88;;;28.27;100.00
45357;BME280;31092;51.924;21.448;2022-08-19T08:13:28;99900.06;;;28.07;100.00
45357;BME280;31092;51.924;21.448;2022-08-19T08:15:53;99914.31;;;28.20;100.00
45357;BME280;31092;51.924;21.448;2022-08-19T08:18:19;99957.50;;;28.55;100.00
45357;BME280;31092;51.924;21.448;2022-08-19T08:20:46;99957.19;;;28.61;100.00
45357;BME280;31092;51.924;21.448;2022-08-19T08:23:11;99895.03;;;28.44;100.00
45357;BME280;31092;51.924;21.448;2022-08-19T08:25:53;99926.47;;;28.82;100.00
45357;BME280;31092;51.924;21.448;2022-08-19T08:28:20;99891.97;;;28.69;100.00
45357;BME280;31092;51.924;21.448;2022-08-19T08:30:47;99931.56;;;28.99;100.00
45357;BME280;31092;51.924;21.448;2022-08-19T08:33:16;99909.22;;;28.85;100.00
45357;BME280;31092;51.924;21.448;2022-08-19T08:35:42;99937.81;;;29.09;100.00
45357;BME280;31092;51.924;21.448;2022-08-19T08:38:08;99940.91;;;29.27;100.00
45357;BME280;31092;51.924;21.448;2022-08-19T08:49:01;99941.13;;;29.92;100.00
45357;BME280;31092;51.924;21.448;2022-08-19T08:51:38;99900.03;;;29.75;100.00
45357;BME280;31092;51.924;21.448;2022-08-19T08:54:08;99908.09;;;29.91;100.00
45357;BME280;31092;51.924;21.448;2022-08-19T08:56:38;99930.69;;;30.17;100.00
45357;BME280;31092;51.924;21.448;2022-08-19T08:59:10;99896.94;;;30.10;100.00
45357;BME280;31092;51.924;21.448;2022-08-19T09:01:37;99934.84;;;30.38;100.00
45357;BME280;31092;51.924;21.448;2022-08-19T09:04:07;99897.34;;;30.22;100.00
45357;BME280;31092;51.924;21.448;2022-08-19T09:09:45;99953.44;;;30.38;100.00
45357;BME280;31092;51.924;21.448;2022-08-19T09:17:15;99941.13;;;30.58;100.00
45357;BME280;31092;51.924;21.448;2022-08-19T09:20:21;99948.63;;;30.90;100.00
45357;BME280;31092;51.924;21.448;2022-08-19T09:22:45;99947.69;;;31.08;100.00
45357;BME280;31092;51.924;21.448;2022-08-19T09:25:17;99892.06;;;30.81;100.00
45357;BME280;31092;51.924;21.448;2022-08-19T09:27:43;99906.09;;;30.89;100.00
45357;BME280;31092;51.924;21.448;2022-08-19T09:30:18;99911.50;;;31.22;100.00
45357;BME280;31092;51.924;21.448;2022-08-19T09:32:46;99938.16;;;31.64;100.00
45357;BME280;31092;51.924;21.448;2022-08-19T09:35:13;99908.75;;;31.94;100.00
45357;BME280;31092;51.924;21.448;2022-08-19T09:37:40;99923.06;;;32.24;100.00
45357;BME280;31092;51.924;21.448;2022-08-19T09:40:06;99956.25;;;32.57;100.00
45357;BME280;31092;51.924;21.448;2022-08-19T09:42:32;99909.31;;;32.50;100.00
45357;BME280;31092;51.924;21.448;2022-08-19T09:44:59;99963.91;;;32.82;100.00
45357;BME280;31092;51.924;21.448;2022-08-19T09:47:24;99965.69;;;32.78;100.00
45357;BME280;31092;51.924;21.448;2022-08-19T09:49:50;99944.75;;;32.58;100.00
45357;BME280;31092;51.924;21.448;2022-08-19T09:52:15;99954.09;;;32.54;100.00
45357;BME280;31092;51.924;21.448;2022-08-19T09:54:41;99969.00;;;32.49;100.00
45357;BME280;31092;51.924;21.448;2022-08-19T09:57:07;99904.09;;;32.04;100.00
45357;BME280;31092;51.924;21.448;2022-08-19T09:59:33;99970.13;;;32.26;100.00
45357;BME280;31092;51.924;21.448;2022-08-19T10:01:58;99934.50;;;31.91;100.00
45357;BME280;31092;51.924;21.448;2022-08-19T10:04:24;99943.72;;;32.01;100.00
45357;BME280;31092;51.924;21.448;2022-08-19T10:07:10;99909.31;;;31.83;100.00
45357;BME280;31092;51.924;21.448;2022-08-19T10:09:35;99958.91;;;32.17;100.00
45357;BME280;31092;51.924;21.448;2022-08-19T10:12:03;99953.97;;;32.14;100.00
45357;BME280;31092;51.924;21.448;2022-08-19T10:14:29;99956.56;;;32.10;100.00
45357;BME280;31092;51.924;21.448;2022-08-19T10:16:55;99910.25;;;31.78;100.00
45357;BME280;31092;51.924;21.448;2022-08-19T10:19:21;99942.84;;;31.91;100.00
45357;BME280;31092;51.924;21.448;2022-08-19T10:21:47;99919.28;;;31.84;100.00
45357;BME280;31092;51.924;21.448;2022-08-19T10:24:12;99901.63;;;31.66;100.00
45357;BME280;31092;51.924;21.448;2022-08-19T10:26:40;99896.44;;;31.51;100.00
45357;BME280;31092;51.924;21.448;2022-08-19T10:29:10;99930.91;;;31.77;100.00
45357;BME280;31092;51.924;21.448;2022-08-19T10:31:36;99892.97;;;31.67;100.00
45357;BME280;31092;51.924;21.448;2022-08-19T10:34:02;99935.41;;;31.87;100.00
45357;BME280;31092;51.924;21.448;2022-08-19T10:36:34;99873.09;;;31.60;100.00
45357;BME280;31092;51.924;21.448;2022-08-19T10:39:05;99920.75;;;31.95;100.00
45357;BME280;31092;51.924;21.448;2022-08-19T10:41:35;99888.59;;;31.75;100.00
45357;BME280;31092;51.924;21.448;2022-08-19T10:44:04;99930.41;;;31.98;100.00
45357;BME280;31092;51.924;21.448;2022-08-19T10:46:32;99925.22;;;32.05;100.00
45357;BME280;31092;51.924;21.448;2022-08-19T10:48:59;99876.22;;;31.81;100.00
45357;BME280;31092;51.924;21.448;2022-08-19T10:51:26;99929.75;;;32.23;100.00
45357;BME280;31092;51.924;21.448;2022-08-19T10:54:10;99918.69;;;32.32;100.00
45357;BME280;31092;51.924;21.448;2022-08-19T10:56:36;99913.13;;;32.32;100.00
45357;BME280;31092;51.924;21.448;2022-08-19T10:59:25;99867.88;;;32.04;100.00
45357;BME280;31092;51.924;21.448;2022-08-19T11:01:54;99885.50;;;32.22;100.00
45357;BME280;31092;51.924;21.448;2022-08-19T11:04:24;99914.09;;;32.58;100.00
45357;BME280;31092;51.924;21.448;2022-08-19T11:06:49;99901.31;;;32.57;100.00
45357;BME280;31092;51.924;21.448;2022-08-19T11:09:18;99864.75;;;32.28;100.00
45357;BME280;31092;51.924;21.448;2022-08-19T11:11:44;99922.78;;;32.57;100.00
45357;BME280;31092;51.924;21.448;2022-08-19T11:14:11;99855.81;;;32.17;100.00
45357;BME280;31092;51.924;21.448;2022-08-19T11:16:38;99913.31;;;32.35;100.00
45357;BME280;31092;51.924;21.448;2022-08-19T11:19:05;99910.00;;;32.33;100.00
45357;BME280;31092;51.924;21.448;2022-08-19T11:21:35;99917.47;;;32.47;100.00
45357;BME280;31092;51.924;21.448;2022-08-19T11:24:06;99910.66;;;32.61;100.00
45357;BME280;31092;51.924;21.448;2022-08-19T11:26:32;99856.41;;;32.36;100.00
45357;BME280;31092;51.924;21.448;2022-08-19T11:28:59;99864.91;;;32.31;100.00
45357;BME280;31092;51.924;21.448;2022-08-19T11:31:29;99900.84;;;32.64;100.00
45357;BME280;31092;51.924;21.448;2022-08-19T11:33:57;99843.09;;;32.25;100.00
45357;BME280;31092;51.924;21.448;2022-08-19T11:36:25;99844.19;;;32.46;100.00
45357;BME280;31092;51.924;21.448;2022-08-19T11:38:51;99838.53;;;32.37;100.00
45357;BME280;31092;51.924;21.448;2022-08-19T11:41:23;99895.81;;;32.75;100.00
45357;BME280;31092;51.924;21.448;2022-08-19T11:43:50;99851.56;;;32.42;99.87
45357;BME280;31092;51.924;21.448;2022-08-19T11:46:18;99908.69;;;32.62;99.91
45357;BME280;31092;51.924;21.448;2022-08-19T11:48:44;99891.50;;;32.69;100.00
45357;BME280;31092;51.924;21.448;2022-08-19T11:51:15;99902.34;;;32.70;100.00
45357;BME280;31092;51.924;21.448;2022-08-19T11:53:41;99888.16;;;32.49;98.60
45357;BME280;31092;51.924;21.448;2022-08-19T11:56:08;99878.34;;;32.29;100.00
45357;BME280;31092;51.924;21.448;2022-08-19T11:58:34;99888.91;;;32.41;100.00
45357;BME280;31092;51.924;21.448;2022-08-19T12:01:00;99889.59;;;32.47;100.00
45357;BME280;31092;51.924;21.448;2022-08-19T12:03:25;99888.53;;;32.65;100.00
45357;BME280;31092;51.924;21.448;2022-08-19T12:05:51;99890.84;;;32.63;100.00
45357;BME280;31092;51.924;21.448;2022-08-19T12:08:17;99876.38;;;32.61;100.00
45357;BME280;31092;51.924;21.448;2022-08-19T12:10:43;99859.47;;;32.57;100.00
45357;BME280;31092;51.924;21.448;2022-08-19T12:13:12;99861.78;;;32.55;99.84
45357;BME280;31092;51.924;21.448;2022-08-19T12:15:44;99824.59;;;32.37;99.74
45357;BME280;31092;51.924;21.448;2022-08-19T12:18:10;99820.25;;;32.14;98.59
45357;BME280;31092;51.924;21.448;2022-08-19T12:20:38;99832.22;;;32.14;99.10
45357;BME280;31092;51.924;21.448;2022-08-19T12:23:05;99873.84;;;32.42;98.96
45357;BME280;31092;51.924;21.448;2022-08-19T12:25:32;99821.06;;;32.14;99.45
45357;BME280;31092;51.924;21.448;2022-08-19T12:27:58;99825.47;;;32.15;98.26
45357;BME280;31092;51.924;21.448;2022-08-19T12:30:24;99855.69;;;32.45;98.26
45357;BME280;31092;51.924;21.448;2022-08-19T12:32:50;99829.78;;;32.22;96.96
45357;BME280;31092;51.924;21.448;2022-08-19T12:35:17;99854.91;;;32.30;97.20
45357;BME280;31092;51.924;21.448;2022-08-19T12:37:45;99801.28;;;31.93;98.23
45357;BME280;31092;51.924;21.448;2022-08-19T12:40:12;99791.66;;;32.00;97.55
45357;BME280;31092;51.924;21.448;2022-08-19T12:42:40;99801.19;;;32.07;97.44
45357;BME280;31092;51.924;21.448;2022-08-19T12:45:12;99790.66;;;31.95;96.56
45357;BME280;31092;51.924;21.448;2022-08-19T12:47:39;99799.22;;;32.08;99.18
45357;BME280;31092;51.924;21.448;2022-08-19T12:50:05;99832.25;;;32.23;97.88
45357;BME280;31092;51.924;21.448;2022-08-19T12:52:34;99794.75;;;31.98;97.04
45357;BME280;31092;51.924;21.448;2022-08-19T12:55:04;99796.41;;;31.99;97.53
45357;BME280;31092;51.924;21.448;2022-08-19T12:57:30;99742.44;;;31.64;96.17
45357;BME280;31092;51.924;21.448;2022-08-19T13:00:11;99779.75;;;31.85;95.31
45357;BME280;31092;51.924;21.448;2022-08-19T13:02:39;99838.59;;;32.15;93.96
45357;BME280;31092;51.924;21.448;2022-08-19T13:05:07;99819.00;;;31.98;93.73
45357;BME280;31092;51.924;21.448;2022-08-19T13:07:34;99781.16;;;31.74;93.75
45357;BME280;31092;51.924;21.448;2022-08-19T13:10:00;99826.13;;;32.12;95.66
45357;BME280;31092;51.924;21.448;2022-08-19T13:12:25;99780.16;;;31.92;96.04
45357;BME280;31092;51.924;21.448;2022-08-19T13:14:52;99819.50;;;32.31;96.29